Time;durP1;ratioP1;P1;durP2;ratioP2;P2;SDS_P1;SDS_P2;PMS_P1;PMS_P2;Temp;Humidity;BMP_temperature;BMP_pressure;BME280_temperature;BME280_humidity;BME280_pressure;Samples;Min_cycle;Max_cycle;Signal;HPM_P1;HPM_P2
2023/05/31 00:01:54;;;;;;;7.13;6.50;;;;;;;13.88;81.15;101670.53;5064798;28;20215;-78
2023/05/31 00:04:20;;;;;;;7.90;7.20;;;;;;;13.84;81.18;101667.06;5057508;28;20215;-78
2023/05/31 00:06:46;;;;;;;8.10;7.30;;;;;;;13.87;81.47;101669.66;5059680;28;20248;-79
2023/05/31 00:09:14;;;;;;;7.57;6.83;;;;;;;13.85;81.32;101666.16;5068736;28;20236;-79
2023/05/31 00:11:40;;;;;;;8.00;7.23;;;;;;;13.78;81.50;101664.53;5068334;28;20232;-79
2023/05/31 00:14:07;;;;;;;7.47;6.77;;;;;;;13.77;81.56;101662.78;5068351;28;20204;-79
2023/05/31 00:16:33;;;;;;;8.00;7.30;;;;;;;13.66;82.05;101647.16;5066370;28;20263;-78
2023/05/31 00:19:00;;;;;;;7.13;6.53;;;;;;;13.73;81.56;101647.94;5057661;28;20692;-78
2023/05/31 00:21:26;;;;;;;8.27;7.40;;;;;;;13.70;81.37;101656.75;5057410;28;20254;-78
2023/05/31 00:23:52;;;;;;;7.77;7.07;;;;;;;13.63;81.79;101659.47;5061377;28;20204;-79
2023/05/31 00:26:21;;;;;;;7.63;6.90;;;;;;;13.63;81.83;101657.69;5061106;28;20270;-78
2023/05/31 00:28:48;;;;;;;8.00;7.23;;;;;;;13.54;82.79;101641.19;5056707;28;20204;-78
2023/05/31 00:31:14;;;;;;;7.53;6.93;;;;;;;13.53;82.63;101634.22;5056501;28;20232;-78
2023/05/31 00:33:44;;;;;;;8.30;7.50;;;;;;;13.54;82.23;101633.31;5057254;28;20207;-78
2023/05/31 00:36:10;;;;;;;7.77;6.70;;;;;;;13.51;82.19;101632.47;5058291;28;20209;-78
2023/05/31 00:38:37;;;;;;;7.70;6.90;;;;;;;13.50;82.30;101641.25;5057238;28;20263;-78
2023/05/31 00:41:03;;;;;;;7.83;7.20;;;;;;;13.50;82.33;101622.03;5056464;28;20203;-78
2023/05/31 00:43:31;;;;;;;6.93;6.33;;;;;;;13.42;83.43;101615.97;5056534;28;20233;-78
2023/05/31 00:45:57;;;;;;;7.40;6.77;;;;;;;13.43;82.97;101610.72;5056367;28;20581;-78
2023/05/31 00:48:24;;;;;;;7.33;6.60;;;;;;;13.42;83.21;101614.25;5056545;28;20741;-78
2023/05/31 00:50:50;;;;;;;7.03;6.33;;;;;;;13.44;82.77;101607.22;5060649;28;20228;-79
2023/05/31 00:53:20;;;;;;;7.30;6.60;;;;;;;13.43;82.68;101620.34;5066153;28;20209;-79
2023/05/31 00:55:47;;;;;;;6.80;6.30;;;;;;;13.40;83.26;101617.75;5065785;28;20212;-78
2023/05/31 00:58:14;;;;;;;7.17;6.50;;;;;;;13.36;82.57;101627.44;5065988;28;20223;-78
2023/05/31 01:00:42;;;;;;;8.20;7.40;;;;;;;13.38;82.91;101624.75;5064066;28;20210;-78
2023/05/31 01:03:09;;;;;;;7.80;7.00;;;;;;;13.39;82.97;101637.00;5060823;28;20203;-78
2023/05/31 01:05:36;;;;;;;7.43;6.73;;;;;;;13.35;83.33;101622.19;5066258;28;20288;-79
2023/05/31 01:08:03;;;;;;;7.17;6.57;;;;;;;13.27;83.83;101611.75;5065563;28;20609;-78
2023/05/31 01:10:31;;;;;;;12.87;7.30;;;;;;;13.25;83.57;101603.03;5057380;28;20297;-78
2023/05/31 01:13:06;;;;;;;9.57;7.57;;;;;;;13.24;83.71;101604.81;5065292;28;20279;-78
2023/05/31 01:15:36;;;;;;;8.27;6.90;;;;;;;13.22;83.85;101596.09;5065020;28;20237;-79
2023/05/31 01:18:12;;;;;;;7.53;6.50;;;;;;;13.14;83.50;101603.16;5056781;28;20626;-78
2023/05/31 01:20:40;;;;;;;7.30;6.60;;;;;;;13.17;83.58;101597.88;5056201;28;20203;-78
2023/05/31 01:23:28;;;;;;;8.13;6.83;;;;;;;13.15;84.23;101594.41;5056468;28;20207;-78
2023/05/31 01:26:13;;;;;;;7.63;6.93;;;;;;;13.13;84.67;101590.94;5057389;28;20673;-79
2023/05/31 01:28:43;;;;;;;7.20;6.50;;;;;;;13.07;84.08;101583.13;5064431;28;20205;-78
2023/05/31 01:31:15;;;;;;;7.70;6.90;;;;;;;13.00;85.06;101584.97;5063452;28;20279;-78
2023/05/31 01:33:42;;;;;;;7.10;6.40;;;;;;;12.96;85.00;101578.00;5056508;28;20211;-78
2023/05/31 01:36:08;;;;;;;8.53;7.17;;;;;;;12.87;85.99;101571.09;5058059;28;20205;-81
2023/05/31 01:38:35;;;;;;;8.30;7.50;;;;;;;12.84;85.79;101559.78;5066496;28;20203;-79
2023/05/31 01:41:06;;;;;;;7.03;6.43;;;;;;;12.88;85.75;101554.50;5065397;28;20201;-78
2023/05/31 01:43:34;;;;;;;7.63;6.93;;;;;;;12.89;85.55;101558.00;5065366;28;20655;-79
2023/05/31 01:46:03;;;;;;;7.43;6.57;;;;;;;12.92;85.64;101563.19;5063229;28;20260;-78
2023/05/31 01:48:29;;;;;;;7.67;7.03;;;;;;;12.91;85.17;101566.72;5056345;28;20751;-78
2023/05/31 01:50:58;;;;;;;10.33;6.53;;;;;;;12.88;84.58;101585.06;5057466;28;20229;-78
2023/05/31 01:53:25;;;;;;;8.23;7.57;;;;;;;12.87;84.68;101584.22;5056745;28;20257;-79
2023/05/31 01:55:53;;;;;;;8.23;7.53;;;;;;;12.85;85.44;101583.34;5056424;28;20210;-78
2023/05/31 01:58:21;;;;;;;7.97;7.20;;;;;;;12.83;84.93;101584.25;5063396;28;20231;-79
2023/05/31 02:00:48;;;;;;;8.60;7.90;;;;;;;12.78;85.03;101591.28;5065199;28;20202;-78
2023/05/31 02:03:16;;;;;;;8.90;8.13;;;;;;;12.70;85.13;101587.00;5057032;28;20235;-78
2023/05/31 02:05:55;;;;;;;9.70;8.33;;;;;;;12.68;85.43;101575.66;5058074;28;20565;-78
2023/05/31 02:08:23;;;;;;;9.13;8.33;;;;;;;12.71;85.22;101572.16;5063837;28;20309;-79
2023/05/31 02:10:49;;;;;;;9.67;8.57;;;;;;;12.71;85.49;101562.53;5064021;28;20225;-78
2023/05/31 02:13:15;;;;;;;10.13;9.20;;;;;;;12.69;85.28;101566.06;5063676;28;20214;-79
2023/05/31 02:15:42;;;;;;;9.30;8.50;;;;;;;12.64;86.06;101552.97;5064157;28;20782;-79
2023/05/31 02:18:08;;;;;;;8.97;8.27;;;;;;;12.63;85.59;101550.41;5063216;28;20238;-79
2023/05/31 02:20:36;;;;;;;9.87;9.07;;;;;;;12.63;85.47;101553.88;5063466;28;20201;-79
2023/05/31 02:23:02;;;;;;;9.30;8.33;;;;;;;12.65;85.61;101554.72;5067119;28;20202;-79
2023/05/31 02:25:29;;;;;;;8.83;8.03;;;;;;;12.60;85.00;101564.38;5066747;28;20231;-79
2023/05/31 02:27:55;;;;;;;8.43;7.83;;;;;;;12.56;85.92;101557.44;5062333;28;20230;-79
2023/05/31 02:30:21;;;;;;;8.77;7.97;;;;;;;12.51;86.12;101554.00;5068053;28;20202;-79
2023/05/31 02:32:48;;;;;;;11.93;8.47;;;;;;;12.49;86.19;101556.63;5063676;28;20263;-79
2023/05/31 02:35:14;;;;;;;8.70;8.00;;;;;;;12.48;85.86;101554.88;5063289;28;20236;-79
2023/05/31 02:37:42;;;;;;;9.67;8.80;;;;;;;12.43;85.40;101556.69;5062629;28;20231;-79
2023/05/31 02:40:08;;;;;;;9.93;9.13;;;;;;;12.43;85.61;101555.81;5062950;28;20219;-79
2023/05/31 02:42:36;;;;;;;9.47;8.57;;;;;;;12.34;86.45;101555.88;5063410;28;20229;-79
2023/05/31 02:45:02;;;;;;;9.57;8.77;;;;;;;12.27;86.93;101534.13;5062967;28;20297;-78
2023/05/31 02:47:29;;;;;;;9.90;8.90;;;;;;;12.34;86.43;101537.56;5062104;28;20222;-79
2023/05/31 02:49:55;;;;;;;9.60;8.70;;;;;;;12.33;86.49;101536.69;5062501;28;20201;-79
2023/05/31 02:52:23;;;;;;;10.33;9.43;;;;;;;12.30;87.20;101528.84;5062457;28;20287;-79
2023/05/31 02:54:51;;;;;;;10.17;9.20;;;;;;;12.29;86.65;101527.13;5062723;28;20202;-79
2023/05/31 02:57:17;;;;;;;9.33;8.60;;;;;;;12.27;86.61;101527.16;5062949;28;20225;-79
2023/05/31 02:59:43;;;;;;;10.67;9.60;;;;;;;12.28;86.68;101522.78;5062749;28;20205;-78
2023/05/31 03:02:10;;;;;;;10.47;9.33;;;;;;;12.27;86.23;101527.16;5062736;28;20207;-79
2023/05/31 03:04:37;;;;;;;9.43;8.63;;;;;;;12.27;86.73;101515.81;5062589;28;20206;-79
2023/05/31 03:07:04;;;;;;;11.77;8.00;;;;;;;12.28;86.38;101521.00;5065403;28;20223;-79
2023/05/31 03:09:30;;;;;;;9.93;8.97;;;;;;;12.30;86.39;101519.25;5064554;28;20293;-79
2023/05/31 03:11:58;;;;;;;10.50;9.50;;;;;;;12.21;87.32;101510.59;5063064;28;20279;-79
2023/05/31 03:14:24;;;;;;;9.53;8.63;;;;;;;12.19;87.30;101510.63;5062470;28;20576;-79
2023/05/31 03:16:51;;;;;;;9.63;8.63;;;;;;;12.14;87.02;101514.16;5060332;28;20264;-78
2023/05/31 03:19:17;;;;;;;9.10;8.30;;;;;;;12.07;86.99;101511.59;5062738;28;20207;-78
2023/05/31 03:21:43;;;;;;;8.97;8.20;;;;;;;12.05;86.78;101513.38;5062269;28;20230;-79
2023/05/31 03:24:10;;;;;;;10.03;8.97;;;;;;;12.07;87.06;101518.56;5062240;28;20287;-79
2023/05/31 03:26:36;;;;;;;9.70;8.87;;;;;;;12.07;87.46;101523.81;5062485;28;20796;-79
2023/05/31 03:29:04;;;;;;;10.03;9.23;;;;;;;12.04;87.57;101516.84;5061999;28;20207;-79
2023/05/31 03:31:30;;;;;;;10.33;9.00;;;;;;;12.07;88.12;101509.00;5062272;28;20223;-79
2023/05/31 03:33:56;;;;;;;9.37;8.43;;;;;;;11.78;90.14;101495.22;5061948;28;20209;-79
2023/05/31 03:36:23;;;;;;;10.67;9.57;;;;;;;11.79;90.41;101471.63;5061959;28;20202;-79
2023/05/31 03:38:49;;;;;;;10.07;9.17;;;;;;;11.84;89.82;101471.63;5061650;28;20202;-79
2023/05/31 03:41:16;;;;;;;10.87;9.77;;;;;;;11.81;90.46;101451.56;5061384;28;20211;-79
2023/05/31 03:43:42;;;;;;;10.80;9.90;;;;;;;11.77;91.07;101443.78;5061876;28;20264;-79
2023/05/31 03:46:09;;;;;;;10.20;9.20;;;;;;;11.84;90.96;101443.72;5062142;28;20570;-79
2023/05/31 03:48:36;;;;;;;10.30;9.40;;;;;;;11.88;90.45;101445.41;5061805;28;20275;-79
2023/05/31 03:51:02;;;;;;;10.57;9.37;;;;;;;11.95;90.03;101459.34;5061342;28;20639;-79
2023/05/31 03:53:29;;;;;;;10.03;9.17;;;;;;;12.00;90.09;101467.19;5061655;28;20236;-79
2023/05/31 03:55:55;;;;;;;10.87;9.77;;;;;;;11.93;89.93;101482.03;5061565;28;20235;-79
2023/05/31 03:58:21;;;;;;;10.90;9.80;;;;;;;11.60;92.68;101449.13;5061268;28;20261;-79
2023/05/31 04:00:48;;;;;;;10.97;9.87;;;;;;;11.67;93.09;101416.81;5065716;28;20291;-79
2023/05/31 04:03:15;;;;;;;11.10;10.20;;;;;;;11.79;92.41;101415.84;5064198;28;20209;-78
2023/05/31 04:05:42;;;;;;;10.80;9.70;;;;;;;11.76;92.74;101415.91;5061977;28;20244;-79
2023/05/31 04:08:08;;;;;;;11.10;10.10;;;;;;;11.58;93.35;101407.31;5061047;28;20287;-79
2023/05/31 04:10:35;;;;;;;10.47;9.50;;;;;;;11.62;93.94;101389.84;5061026;28;20264;-79
2023/05/31 04:13:01;;;;;;;10.87;9.77;;;;;;;11.68;94.01;101388.03;5061375;28;20263;-78
2023/05/31 04:15:28;;;;;;;10.30;9.30;;;;;;;11.64;94.16;101378.47;5061358;28;20236;-79
2023/05/31 04:17:57;;;;;;;11.57;9.70;;;;;;;11.74;93.96;101384.50;5062230;22;20325;-83
2023/05/31 04:20:25;;;;;;;10.43;9.43;;;;;;;11.81;93.65;101391.41;5017796;28;20212;-84
2023/05/31 04:22:52;;;;;;;12.20;9.50;;;;;;;11.82;93.41;101401.00;5017962;28;20223;-85
2023/05/31 04:25:19;;;;;;;11.63;9.47;;;;;;;11.66;93.77;101399.41;5017859;28;20733;-84
2023/05/31 04:27:45;;;;;;;10.63;9.73;;;;;;;11.76;94.46;101387.13;5016510;28;20233;-83
2023/05/31 04:30:12;;;;;;;12.40;9.17;;;;;;;11.72;94.05;101388.88;5013792;28;20212;-82
2023/05/31 04:32:40;;;;;;;16.17;9.47;;;;;;;11.50;94.50;101391.66;5017941;28;20326;-82
2023/05/31 04:35:08;;;;;;;10.70;9.57;;;;;;;11.30;96.34;101364.81;5017569;28;20209;-83
2023/05/31 04:37:36;;;;;;;11.03;10.03;;;;;;;11.09;98.29;101348.38;5017838;28;20227;-84
2023/05/31 04:40:05;;;;;;;10.90;9.77;;;;;;;11.07;99.58;101315.31;5017281;28;20215;-83
2023/05/31 04:42:32;;;;;;;12.80;10.27;;;;;;;10.81;100.00;101299.81;5017313;28;20213;-84
2023/05/31 04:45:00;;;;;;;11.70;10.50;;;;;;;10.69;100.00;101279.84;5017184;28;20242;-84
2023/05/31 04:47:28;;;;;;;10.63;9.63;;;;;;;10.82;100.00;101259.75;5017040;28;20446;-83
2023/05/31 04:49:56;;;;;;;10.57;9.67;;;;;;;11.00;100.00;101263.97;5017626;28;20228;-82
2023/05/31 04:52:26;;;;;;;10.87;9.80;;;;;;;11.20;100.00;101279.50;5017171;28;20236;-84
2023/05/31 04:54:54;;;;;;;10.77;9.77;;;;;;;11.41;100.00;101305.44;5017525;28;20211;-82
2023/05/31 04:57:20;;;;;;;11.93;9.97;;;;;;;11.32;98.03;101344.75;5017622;28;20232;-83
2023/05/31 04:59:47;;;;;;;11.13;10.03;;;;;;;11.36;97.97;101354.31;5017571;28;20207;-83
2023/05/31 05:02:13;;;;;;;10.77;9.77;;;;;;;11.49;97.56;101365.53;5017072;28;20203;-82
2023/05/31 05:04:40;;;;;;;10.00;8.77;;;;;;;11.70;96.69;101381.03;5017697;28;20219;-84
2023/05/31 05:07:08;;;;;;;10.53;9.43;;;;;;;11.84;96.15;101404.47;5015671;28;20223;-84
2023/05/31 05:09:34;;;;;;;10.53;9.53;;;;;;;12.00;94.49;101423.56;5017439;28;20207;-85
2023/05/31 05:12:02;;;;;;;11.07;10.03;;;;;;;12.12;93.70;101451.38;5016820;28;20637;-86
2023/05/31 05:14:29;;;;;;;9.50;8.50;;;;;;;12.29;92.48;101480.03;5017498;28;20207;-84
2023/05/31 05:16:56;;;;;;;11.10;9.83;;;;;;;12.40;90.77;101514.81;5017052;28;20678;-84
2023/05/31 05:19:24;;;;;;;9.33;8.43;;;;;;;12.49;90.25;101526.97;5018744;28;20185;-83
2023/05/31 05:21:53;;;;;;;9.50;8.60;;;;;;;12.66;90.08;101545.13;5031250;28;20219;-84
2023/05/31 05:24:19;;;;;;;10.43;9.10;;;;;;;12.94;88.68;101573.66;5029891;28;20213;-84
2023/05/31 05:26:46;;;;;;;10.00;8.83;;;;;;;13.10;87.13;101604.94;5026282;28;20209;-82
2023/05/31 05:29:14;;;;;;;9.43;8.53;;;;;;;13.10;86.41;101635.50;5017385;28;20208;-81
2023/05/31 05:31:41;;;;;;;9.27;8.27;;;;;;;13.12;86.29;101654.72;5016995;28;20223;-82
2023/05/31 05:34:09;;;;;;;8.53;7.73;;;;;;;13.09;86.79;101657.38;5016173;28;20208;-81
2023/05/31 05:36:36;;;;;;;10.00;8.87;;;;;;;13.09;86.96;101662.63;5016173;28;20298;-82
2023/05/31 05:39:06;;;;;;;9.10;8.30;;;;;;;13.16;86.56;101658.19;5015507;28;20231;-82
2023/05/31 05:41:35;;;;;;;9.20;8.33;;;;;;;13.19;86.22;101668.66;5015637;28;20277;-80
2023/05/31 05:44:02;;;;;;;9.57;8.07;;;;;;;13.26;86.29;101684.31;5015593;28;20623;-83
2023/05/31 05:46:30;;;;;;;9.00;8.17;;;;;;;13.30;86.20;101678.19;5015238;28;20217;-81
2023/05/31 05:48:57;;;;;;;12.70;9.13;;;;;;;13.36;85.33;101679.00;5015664;28;20239;-82
2023/05/31 05:51:26;;;;;;;10.70;8.93;;;;;;;13.29;86.36;101670.28;5015473;28;20297;-81
2023/05/31 05:53:52;;;;;;;8.90;8.00;;;;;;;13.40;86.25;101667.56;5014979;28;20214;-82
2023/05/31 05:56:19;;;;;;;13.03;8.13;;;;;;;13.42;85.96;101661.44;5016158;28;20217;-80
2023/05/31 05:58:46;;;;;;;9.30;8.10;;;;;;;13.51;85.74;101668.34;5013450;28;20225;-84
2023/05/31 06:01:18;;;;;;;9.67;7.77;;;;;;;13.56;84.55;101679.66;5014409;28;20706;-85
2023/05/31 06:03:47;;;;;;;11.67;8.43;;;;;;;13.60;84.56;101698.88;5015240;28;20264;-81
2023/05/31 06:06:14;;;;;;;9.47;7.97;;;;;;;13.62;85.37;101695.31;5014772;28;20265;-84
2023/05/31 06:08:41;;;;;;;11.60;8.57;;;;;;;13.67;85.08;101696.13;5013562;28;20232;-85
2023/05/31 06:11:07;;;;;;;16.80;8.77;;;;;;;13.66;85.17;101688.28;5014476;28;20213;-84
2023/05/31 06:13:33;;;;;;;8.90;7.70;;;;;;;13.68;84.95;101687.38;5014989;28;20231;-85
2023/05/31 06:16:00;;;;;;;8.67;7.57;;;;;;;13.71;84.67;101686.47;5014821;28;20204;-84
2023/05/31 06:18:26;;;;;;;8.57;7.70;;;;;;;13.74;84.53;101694.31;5014484;28;20282;-82
2023/05/31 06:20:55;;;;;;;9.53;6.93;;;;;;;13.80;84.49;101689.00;5016073;28;20740;-86
2023/05/31 06:23:21;;;;;;;8.57;7.27;;;;;;;13.69;85.51;101680.38;5015622;28;20203;-85
2023/05/31 06:25:48;;;;;;;12.90;7.40;;;;;;;13.79;84.79;101678.50;5016185;28;20209;-84
2023/05/31 06:28:14;;;;;;;9.43;8.40;;;;;;;13.73;86.40;101674.19;5017721;28;20721;-82
2023/05/31 06:30:41;;;;;;;12.77;8.97;;;;;;;13.74;86.74;101644.47;5017106;28;20632;-83
2023/05/31 06:33:08;;;;;;;9.40;7.60;;;;;;;13.83;86.49;101646.09;5016556;28;20240;-82
2023/05/31 06:35:34;;;;;;;8.70;6.47;;;;;;;13.92;86.34;101637.25;5017241;28;20216;-83
2023/05/31 06:38:03;;;;;;;7.90;6.10;;;;;;;13.99;85.31;101652.84;5015317;28;20233;-84
2023/05/31 06:40:30;;;;;;;7.03;6.33;;;;;;;14.07;84.39;101663.25;5027304;28;20206;-83
2023/05/31 06:42:57;;;;;;;9.30;6.13;;;;;;;14.09;83.83;101670.25;5028649;28;20210;-81
2023/05/31 06:45:24;;;;;;;7.53;6.50;;;;;;;14.18;82.25;101705.13;5024959;28;20213;-82
2023/05/31 06:47:51;;;;;;;9.97;6.30;;;;;;;14.08;83.31;101710.50;5015855;28;20361;-84
2023/05/31 06:50:17;;;;;;;7.03;6.33;;;;;;;14.15;83.63;101690.28;5018501;28;20209;-81
2023/05/31 06:52:44;;;;;;;11.87;6.67;;;;;;;14.28;82.93;101704.13;5020795;28;20580;-81
2023/05/31 06:55:11;;;;;;;8.37;6.60;;;;;;;14.26;82.81;101719.03;5024263;28;20212;-82
2023/05/31 06:57:38;;;;;;;16.60;6.23;;;;;;;14.06;82.71;101725.41;5021217;28;20264;-82
2023/05/31 07:00:07;;;;;;;8.63;5.83;;;;;;;14.22;82.25;101720.81;5020828;28;20270;-82
2023/05/31 07:02:33;;;;;;;6.17;5.57;;;;;;;14.29;81.33;101735.63;5021197;28;20202;-83
2023/05/31 07:05:05;;;;;;;7.27;5.33;;;;;;;14.38;80.77;101752.16;5019868;28;20228;-85
2023/05/31 07:07:32;;;;;;;6.80;5.17;;;;;;;14.48;79.76;101785.28;5018369;28;20288;-85
2023/05/31 07:10:01;;;;;;;8.03;5.50;;;;;;;14.43;79.56;101793.22;5020124;28;20213;-84
2023/05/31 07:12:29;;;;;;;6.10;5.00;;;;;;;14.52;80.05;101801.88;5020589;28;20236;-82
2023/05/31 07:14:55;;;;;;;9.57;5.43;;;;;;;14.61;79.10;101800.03;5021862;28;20258;-83
2023/05/31 07:17:23;;;;;;;8.77;5.53;;;;;;;14.74;77.87;101826.13;5020403;28;20237;-83
2023/05/31 07:20:14;;;;;;;5.43;4.80;;;;;;;14.86;77.05;101860.13;5019910;28;20274;-84
2023/05/31 07:26:29;;;;;;;6.07;5.17;;;;;;;15.04;77.69;101875.66;4945771;29;20307;-83
2023/05/31 07:29:25;;;;;;;5.27;4.80;;;;;;;15.06;76.66;101883.50;4975647;28;20241;-84
2023/05/31 07:35:28;;;;;;;7.47;5.20;;;;;;;15.18;74.97;101925.44;4998932;28;20281;-84
2023/05/31 07:38:00;;;;;;;7.50;5.33;;;;;;;15.29;74.53;101934.03;5019048;28;20240;-83
2023/05/31 07:40:33;;;;;;;6.27;5.27;;;;;;;15.38;74.22;101945.31;5018515;28;20212;-84
2023/05/31 07:42:59;;;;;;;8.40;5.30;;;;;;;15.41;74.18;101959.28;5019674;28;20210;-83
2023/05/31 07:45:31;;;;;;;8.30;5.73;;;;;;;15.43;73.78;101960.13;5018646;28;20197;-83
2023/05/31 07:47:57;;;;;;;9.57;5.73;;;;;;;15.32;73.76;101972.59;5017472;28;20228;-81
2023/05/31 07:50:33;;;;;;;7.67;4.90;;;;;;;15.44;74.45;101950.47;5018747;28;20202;-83
2023/05/31 07:53:13;;;;;;;6.53;5.23;;;;;;;15.51;73.96;101933.72;5018260;28;20217;-83
2023/05/31 07:55:45;;;;;;;6.90;4.87;;;;;;;15.62;73.78;101942.31;5017984;28;20204;-84
2023/05/31 07:58:14;;;;;;;5.53;4.27;;;;;;;15.65;73.89;101936.13;5021800;28;20230;-81
2023/05/31 08:00:42;;;;;;;6.93;4.43;;;;;;;15.77;74.01;101937.72;5027084;28;20240;-83
2023/05/31 08:03:22;;;;;;;5.27;4.47;;;;;;;15.87;71.69;101952.47;5021292;28;20201;-81
2023/05/31 08:05:49;;;;;;;4.43;4.00;;;;;;;15.91;70.70;102000.69;5019364;28;20214;-83
2023/05/31 08:08:16;;;;;;;6.20;4.07;;;;;;;15.97;71.51;102003.22;5018865;28;20278;-81
2023/05/31 08:10:42;;;;;;;5.83;4.17;;;;;;;16.04;70.74;102010.16;5018663;28;20279;-85
2023/05/31 08:13:09;;;;;;;4.30;3.90;;;;;;;16.11;70.89;102003.88;5019085;28;20353;-83
2023/05/31 08:15:35;;;;;;;5.50;4.10;;;;;;;16.14;70.18;102013.50;5018658;28;20268;-82
2023/05/31 08:18:03;;;;;;;4.63;3.67;;;;;;;16.18;70.51;102018.69;5018707;28;20285;-81
2023/05/31 08:20:29;;;;;;;6.67;3.83;;;;;;;16.26;69.52;102031.72;5019378;28;20214;-83
2023/05/31 08:22:56;;;;;;;4.70;3.93;;;;;;;16.33;69.13;102050.94;5020445;28;20208;-83
2023/05/31 08:25:23;;;;;;;5.23;3.40;;;;;;;16.32;68.45;102060.59;5018868;28;20206;-84
2023/05/31 08:27:50;;;;;;;4.40;3.87;;;;;;;16.45;68.49;102066.53;5018960;28;20239;-85
2023/05/31 08:30:16;;;;;;;7.20;3.77;;;;;;;16.56;68.10;102082.19;5019732;28;20676;-83
2023/05/31 08:32:45;;;;;;;4.53;3.30;;;;;;;16.66;68.50;102068.78;5020339;28;20274;-83
2023/05/31 08:35:13;;;;;;;3.87;3.40;;;;;;;16.73;68.64;102061.66;5019208;28;20218;-84
2023/05/31 08:37:40;;;;;;;5.03;3.67;;;;;;;16.77;67.81;102062.44;5020518;28;20806;-84
2023/05/31 08:40:07;;;;;;;6.60;3.33;;;;;;;16.77;66.30;102086.19;5025858;28;20221;-82
2023/05/31 08:42:46;;;;;;;4.77;2.93;;;;;;;16.91;68.78;102072.75;5017857;28;20213;-83
2023/05/31 08:45:13;;;;;;;4.70;3.17;;;;;;;16.98;66.29;102091.09;5023617;28;20244;-81
2023/05/31 08:47:43;;;;;;;3.90;2.80;;;;;;;17.10;66.54;102097.91;5019051;28;20720;-81
2023/05/31 08:50:15;;;;;;;4.37;3.17;;;;;;;17.13;66.37;102132.16;5017194;28;20580;-81
2023/05/31 08:52:45;;;;;;;3.47;2.80;;;;;;;17.25;66.22;102102.88;5017138;28;20237;-82
2023/05/31 08:55:13;;;;;;;3.70;2.80;;;;;;;17.33;64.88;102121.19;5016136;28;20195;-83
2023/05/31 08:57:40;;;;;;;4.47;2.67;;;;;;;17.38;65.18;102131.66;5016272;28;20230;-82
2023/05/31 09:00:10;;;;;;;2.90;2.23;;;;;;;17.49;63.43;102147.31;5015422;28;20210;-81
2023/05/31 09:02:45;;;;;;;6.23;2.90;;;;;;;17.56;64.26;102162.09;5015836;28;20581;-83
2023/05/31 09:05:12;;;;;;;4.63;2.63;;;;;;;17.59;61.61;102188.47;5016499;28;20216;-84
2023/05/31 09:07:39;;;;;;;5.60;2.83;;;;;;;17.60;60.71;102221.88;5015648;28;20736;-84
2023/05/31 09:10:09;;;;;;;4.23;2.17;;;;;;;17.72;61.38;102229.56;5016941;28;20214;-84
2023/05/31 09:12:35;;;;;;;4.73;2.43;;;;;;;17.72;59.37;102250.69;5016934;28;20233;-84
2023/05/31 09:15:06;;;;;;;2.50;2.10;;;;;;;17.77;59.62;102306.06;5016752;28;20213;-84
2023/05/31 09:17:34;;;;;;;3.97;2.03;;;;;;;17.81;59.31;102313.91;5016749;28;20238;-84
2023/05/31 09:20:01;;;;;;;2.67;1.67;;;;;;;17.86;58.73;102325.28;5017460;28;20249;-83
2023/05/31 09:22:34;;;;;;;3.87;2.10;;;;;;;17.92;56.51;102344.56;5023212;28;20213;-84
2023/05/31 09:25:01;;;;;;;3.73;2.43;;;;;;;17.96;56.41;102368.28;5015965;28;20191;-81
2023/05/31 09:27:36;;;;;;;6.20;2.60;;;;;;;18.06;56.80;102382.19;5016104;28;20226;-86
2023/05/31 09:30:08;;;;;;;7.10;2.40;;;;;;;18.14;55.78;102390.84;5017065;28;20263;-83
2023/05/31 09:32:35;;;;;;;5.27;2.77;;;;;;;18.26;56.02;102379.16;5015633;28;20211;-83
2023/05/31 09:35:13;;;;;;;6.07;2.93;;;;;;;18.29;56.20;102397.56;5016336;28;20202;-83
2023/05/31 09:37:46;;;;;;;4.17;2.37;;;;;;;18.48;58.11;102378.72;5015811;28;20226;-84
2023/05/31 09:40:22;;;;;;;4.20;2.10;;;;;;;18.54;56.10;102365.34;5016045;28;20272;-83
2023/05/31 09:42:50;;;;;;;4.60;2.50;;;;;;;18.51;54.80;102349.53;5016298;28;20202;-82
2023/05/31 09:45:17;;;;;;;5.53;2.17;;;;;;;18.53;56.16;102385.66;5017021;28;20268;-84
2023/05/31 09:47:43;;;;;;;4.10;2.60;;;;;;;18.63;56.33;102381.91;5015214;28;20250;-83
2023/05/31 09:50:11;;;;;;;6.07;2.13;;;;;;;18.70;54.36;102372.06;5015144;28;20222;-81
2023/05/31 09:52:38;;;;;;;4.40;2.17;;;;;;;18.79;54.87;102386.84;5014536;28;20261;-82
2023/05/31 09:55:09;;;;;;;3.10;2.53;;;;;;;18.90;54.00;102389.28;5016454;28;20314;-83
2023/05/31 09:57:44;;;;;;;5.23;2.33;;;;;;;19.07;53.27;102410.97;5015660;28;20277;-82
2023/05/31 10:00:15;;;;;;;6.57;2.20;;;;;;;19.19;53.31;102423.06;5016459;28;20213;-82
2023/05/31 10:02:43;;;;;;;4.07;2.33;;;;;;;19.23;54.67;102415.00;5015831;28;20218;-80
2023/05/31 10:05:11;;;;;;;5.50;2.20;;;;;;;19.33;54.35;102418.28;5016189;28;20199;-80
2023/05/31 10:07:38;;;;;;;3.73;2.20;;;;;;;19.45;54.55;102396.81;5015158;28;20227;-79
2023/05/31 10:10:26;;;;;;;2.40;1.93;;;;;;;19.62;53.32;102395.50;5016125;28;20207;-83
2023/05/31 10:13:04;;;;;;;2.67;1.87;;;;;;;19.53;51.42;102451.38;5011054;28;20238;-85
2023/05/31 10:16:11;;;;;;;3.67;2.30;;;;;;;19.67;52.57;102459.84;5016148;28;20201;-84
2023/05/31 10:18:41;;;;;;;4.13;2.23;;;;;;;19.61;50.38;102471.47;5028427;22;20237;-81
2023/05/31 10:21:10;;;;;;;3.30;1.90;;;;;;;19.73;55.37;102462.38;5038220;28;20214;-82
2023/05/31 10:23:43;;;;;;;4.13;1.80;;;;;;;19.86;53.12;102403.75;5042605;28;20751;-81
2023/05/31 10:26:17;;;;;;;3.43;2.10;;;;;;;19.89;52.14;102436.34;5046322;28;20205;-82
2023/05/31 10:29:00;;;;;;;3.87;2.40;;;;;;;19.92;51.84;102452.19;5048523;28;20234;-80
2023/05/31 10:31:32;;;;;;;2.70;1.90;;;;;;;20.08;53.64;102430.56;5045589;28;20206;-81
2023/05/31 10:34:12;;;;;;;4.30;2.30;;;;;;;20.19;53.41;102375.47;5045460;28;20257;-82
2023/05/31 10:36:38;;;;;;;3.27;2.07;;;;;;;20.30;52.64;102401.69;5047944;28;20281;-81
2023/05/31 10:39:14;;;;;;;3.63;2.10;;;;;;;20.38;51.41;102405.84;5046086;28;20226;-81
2023/05/31 10:41:45;;;;;;;3.77;2.23;;;;;;;20.45;53.28;102417.16;5046598;28;20202;-80
2023/05/31 10:44:19;;;;;;;4.77;2.43;;;;;;;20.43;49.28;102380.09;5048209;28;20255;-81
2023/05/31 10:46:49;;;;;;;4.47;2.10;;;;;;;20.51;50.62;102432.88;5044866;28;20206;-81
2023/05/31 10:49:16;;;;;;;3.93;2.03;;;;;;;20.62;50.57;102427.31;5043655;28;20786;-79
2023/05/31 10:51:45;;;;;;;5.43;2.30;;;;;;;20.76;51.43;102434.88;5040055;28;20202;-79
2023/05/31 10:54:19;;;;;;;3.23;1.97;;;;;;;20.79;48.63;102426.81;5040075;28;20233;-79
2023/05/31 10:56:52;;;;;;;3.83;1.87;;;;;;;20.89;49.39;102460.16;5038240;28;20210;-79
2023/05/31 10:59:19;;;;;;;3.77;2.00;;;;;;;20.99;49.06;102479.31;5038089;28;20288;-79
2023/05/31 11:01:46;;;;;;;4.07;2.10;;;;;;;21.15;47.83;102458.47;5037955;28;20597;-80
2023/05/31 11:04:21;;;;;;;3.63;2.13;;;;;;;21.23;47.61;102494.50;5039284;28;20705;-79
2023/05/31 11:06:48;;;;;;;3.73;2.20;;;;;;;21.23;47.01;102520.22;5038051;28;20272;-80
2023/05/31 11:09:16;;;;;;;4.97;2.20;;;;;;;21.27;47.59;102526.28;5038456;28;20234;-80
2023/05/31 11:11:47;;;;;;;3.03;1.80;;;;;;;21.37;47.11;102528.63;5037804;28;20210;-80
2023/05/31 11:14:29;;;;;;;4.47;2.13;;;;;;;21.41;45.85;102540.88;5037378;28;20280;-80
2023/05/31 11:17:15;;;;;;;2.27;1.77;;;;;;;21.57;46.58;102524.50;5037546;28;20284;-80
2023/05/31 11:19:44;;;;;;;4.53;1.90;;;;;;;21.65;45.78;102527.78;5037994;28;20707;-80
2023/05/31 11:22:13;;;;;;;2.63;1.90;;;;;;;21.84;46.10;102543.13;5039667;28;20207;-78
2023/05/31 11:24:49;;;;;;;2.57;1.93;;;;;;;21.93;45.96;102532.19;5038977;28;20203;-81
2023/05/31 11:27:16;;;;;;;4.43;1.93;;;;;;;21.68;46.27;102558.69;5038231;28;20206;-79
2023/05/31 11:30:01;;;;;;;2.63;1.70;;;;;;;22.09;45.53;102521.91;5038167;28;20237;-80
2023/05/31 11:32:56;;;;;;;3.53;1.90;;;;;;;22.25;43.83;102520.50;5037138;28;20210;-78
2023/05/31 11:35:25;;;;;;;3.37;1.77;;;;;;;23.13;43.53;102547.50;5038004;28;20198;-80
2023/05/31 11:38:00;;;;;;;2.93;1.83;;;;;;;24.16;42.10;102578.09;5036285;28;20226;-80